Time;durP1;ratioP1;P1;durP2;ratioP2;P2;SDS_P1;SDS_P2;PMS_P1;PMS_P2;Temp;Humidity;BMP_temperature;BMP_pressure;BME280_temperature;BME280_humidity;BME280_pressure;Samples;Min_cycle;Max_cycle;Signal;HPM_P1;HPM_P2
2022/02/24 00:01:54;876427.00;2.92;1514.76;0.00;0.00;0.62;;;;;10.80;1.00;;;;;;2271229;61;1510;-87
2022/02/24 00:04:35;1234948.00;4.12;2153.54;0.00;0.00;0.62;;;;;11.30;1.00;;;;;;2272179;61;2274;-88
2022/02/24 00:07:09;131366664.00;437.89;91859184.00;0.00;0.00;0.62;;;;;11.30;1.00;;;;;;2272398;61;935;-89
2022/02/24 00:09:45;1629553.00;5.43;2889.35;240792.00;0.80;416.11;;;;;11.20;1.00;;;;;;2272354;61;950;-88
2022/02/24 00:12:19;1227850.00;4.09;2140.66;97686.00;0.33;169.58;;;;;11.20;1.00;;;;;;2272291;61;1435;-89
2022/02/24 00:15:12;824183.00;2.75;1423.33;93018.00;0.31;161.52;;;;;11.20;1.00;;;;;;2272191;61;1237;-88
2022/02/24 00:17:52;688364.00;2.29;1187.07;0.00;0.00;0.62;;;;;11.10;1.00;;;;;;2272275;61;2018;-88
2022/02/24 00:20:33;885551.00;2.95;1530.76;95933.00;0.32;166.55;;;;;11.20;1.00;;;;;;2272308;61;1613;-88
2022/02/24 00:25:55;720381.00;2.40;1242.60;87191.00;0.29;151.46;;;;;10.60;1.00;;;;;;2270547;61;1123;-89
2022/02/24 00:28:27;746917.00;2.49;1288.70;0.00;0.00;0.62;;;;;10.20;1.00;;;;;;2272192;61;1594;-89
2022/02/24 00:31:15;879744.00;2.93;1520.57;39634.00;0.13;69.26;;;;;10.00;1.00;;;;;;2272121;61;1507;-87
2022/02/24 00:34:06;827895.00;2.76;1429.82;0.00;0.00;0.62;;;;;10.10;1.00;;;;;;2272172;61;1668;-88
2022/02/24 00:39:27;1608995.00;5.36;2849.94;47070.00;0.16;82.12;;;;;10.10;1.00;;;;;;2271834;61;1128;-88
2022/02/24 00:42:11;1677837.00;5.59;2982.44;121034.00;0.40;209.87;;;;;10.00;1.00;;;;;;2271988;61;1456;-88
2022/02/24 00:47:45;2068250.00;6.89;3765.42;245994.00;0.82;425.06;;;;;10.50;1.00;;;;;;2271906;61;1430;-88
2022/02/24 00:50:48;140065264.00;466.88;111363456.00;124118.00;0.41;215.19;;;;;9.90;1.00;;;;;;2272048;61;1564;-88
2022/02/24 00:59:21;1365174.00;4.55;2391.89;130226.00;0.43;225.72;;;;;11.30;1.00;;;;;;2267301;61;1358;-88
2022/02/24 01:02:13;;;;;;;;;;;;;;;;;;;;;
2022/02/24 01:04:57;821399.00;2.74;1418.47;94864.00;0.32;164.71;;;;;11.80;1.00;;;;;;2267636;61;1102;-88
2022/02/24 01:07:32;747445.00;2.49;1289.62;89573.00;0.30;155.57;;;;;12.20;1.00;;;;;;2267475;61;1512;-86
2022/02/24 01:12:59;599991.00;2.00;1034.20;88663.00;0.30;154.00;;;;;12.50;1.00;;;;;;2266926;61;1384;-88
2022/02/24 01:15:38;709700.00;2.37;1224.06;0.00;0.00;0.62;;;;;12.60;1.00;;;;;;2266321;61;1625;-88
2022/02/24 01:18:15;515353.00;1.72;888.26;0.00;0.00;0.62;;;;;12.60;1.00;;;;;;2267537;61;1944;-88
2022/02/24 01:20:49;624586.00;2.08;1076.69;0.00;0.00;0.62;;;;;12.50;1.00;;;;;;2267648;61;1493;-88
2022/02/24 01:23:35;756495.00;2.52;1305.35;0.00;0.00;0.62;;;;;12.10;1.00;;;;;;2267454;61;1608;-87
2022/02/24 01:26:09;655053.00;2.18;1129.38;0.00;0.00;0.62;;;;;12.20;1.00;;;;;;2268622;61;1113;-88
2022/02/24 01:28:45;426962.00;1.42;736.16;0.00;0.00;0.62;;;;;12.00;1.00;;;;;;2272106;61;1329;-89
2022/02/24 01:31:29;454943.00;1.52;784.29;0.00;0.00;0.62;;;;;12.00;1.00;;;;;;2272118;61;2146;-88
2022/02/24 01:34:18;;;;;;;;;;;;;;;;;;;;;
2022/02/24 01:37:26;2142014.00;7.14;3920.12;177481.00;0.59;307.15;;;;;12.20;1.00;;;;;;2272012;61;1915;-88
2022/02/24 01:40:24;1787771.00;5.96;3197.27;89181.00;0.30;154.89;;;;;12.50;1.00;;;;;;2272056;61;1412;-87
2022/02/24 01:43:07;2021112.00;6.74;3667.76;196132.00;0.65;339.27;;;;;12.70;1.00;;;;;;2271927;61;1432;-88
2022/02/24 01:45:41;969271.00;3.23;1678.12;106386.00;0.35;184.59;;;;;12.80;1.00;;;;;;2271996;61;1541;-88
2022/02/24 01:48:14;685363.00;2.28;1181.87;0.00;0.00;0.62;;;;;12.50;1.00;;;;;;2272049;61;952;-88
2022/02/24 01:51:14;463870.00;1.55;799.64;0.00;0.00;0.62;;;;;12.40;1.00;;;;;;2271694;61;1594;-89
2022/02/24 01:53:51;703748.00;2.35;1213.74;5465.00;0.02;10.09;;;;;12.50;1.00;;;;;;2271853;61;1476;-89
2022/02/24 01:56:39;539071.00;1.80;929.12;0.00;0.00;0.62;;;;;12.30;1.00;;;;;;2271961;61;1020;-87
2022/02/24 02:01:57;1471335.00;4.90;2589.30;94724.00;0.32;164.46;;;;;12.50;1.00;;;;;;2271480;61;1252;-88
2022/02/24 02:04:29;2092655.00;6.98;3816.34;140663.00;0.47;243.71;;;;;12.50;1.00;;;;;;2271885;61;1589;-89
2022/02/24 02:10:15;1546982.00;5.16;2731.84;24476.00;0.08;43.02;;;;;12.50;1.00;;;;;;2271847;61;1407;-88
2022/02/24 02:13:12;1059274.00;3.53;1837.74;89982.00;0.30;156.28;;;;;11.60;1.00;;;;;;2272572;61;1531;-87
2022/02/24 02:15:46;1170548.00;3.90;2037.06;120442.00;0.40;208.84;;;;;11.60;1.00;;;;;;2272667;61;1397;-89
2022/02/24 02:18:38;757786.00;2.53;1307.60;76854.00;0.26;133.60;;;;;12.00;1.00;;;;;;2272617;61;1923;-88
2022/02/24 02:21:30;422554.00;1.41;728.58;0.00;0.00;0.62;;;;;11.90;1.00;;;;;;2272644;61;1491;-88
2022/02/24 02:26:53;982458.00;3.27;1701.43;111987.00;0.37;194.26;;;;;11.70;1.00;;;;;;2272304;61;1808;-88
2022/02/24 02:29:31;758040.00;2.53;1308.04;84378.00;0.28;146.60;;;;;11.10;1.00;;;;;;2272629;61;1021;-88
2022/02/24 02:32:05;629390.00;2.10;1084.99;83932.00;0.28;145.83;;;;;11.50;1.00;;;;;;2272560;61;1471;-88
2022/02/24 02:34:56;691194.00;2.30;1191.97;0.00;0.00;0.62;;;;;11.50;1.00;;;;;;2272531;61;1571;-88
2022/02/24 02:37:34;561151.00;1.87;967.19;0.00;0.00;0.62;;;;;11.50;1.00;;;;;;2272598;61;1994;-88
2022/02/24 02:40:20;767983.00;2.56;1325.34;0.00;0.00;0.62;;;;;11.90;1.00;;;;;;2272639;61;990;-88
2022/02/24 02:48:31;407613.00;1.36;702.89;0.00;0.00;0.62;;;;;12.10;1.00;;;;;;2272280;61;1076;-88
2022/02/24 02:51:17;506765.00;1.69;873.47;0.00;0.00;0.62;;;;;11.80;1.00;;;;;;2272559;61;1060;-87
2022/02/24 02:56:36;364100.00;1.21;628.10;0.00;0.00;0.62;;;;;11.20;1.00;;;;;;2272446;61;1467;-88
2022/02/24 02:59:09;775205.00;2.58;1337.91;7564.00;0.03;13.73;;;;;10.70;1.00;;;;;;2272531;61;2005;-88
2022/02/24 03:01:50;2047970.00;6.83;3723.29;196850.00;0.66;340.50;;;;;10.70;1.00;;;;;;2272496;61;1328;-88
2022/02/24 03:04:43;1220865.00;4.07;2127.99;90208.00;0.30;156.67;;;;;10.40;1.00;;;;;;2272511;61;1542;-88
2022/02/24 03:07:14;1361556.00;4.54;2385.21;135962.00;0.45;235.61;;;;;10.10;1.00;;;;;;2271623;61;1446;-88
2022/02/24 03:09:48;733626.00;2.45;1265.60;87552.00;0.29;152.08;;;;;9.30;1.00;;;;;;2272510;61;1136;-87
2022/02/24 03:13:01;668903.00;2.23;1153.35;0.00;0.00;0.62;;;;;9.40;1.00;;;;;;2272451;61;1395;-87
2022/02/24 03:15:40;1086039.00;3.62;1885.47;88652.00;0.30;153.98;;;;;9.80;1.00;;;;;;2258905;61;1565;-87
2022/02/24 03:18:29;1006043.00;3.35;1743.18;92899.00;0.31;161.31;;;;;10.60;1.00;;;;;;2272409;61;1928;-87
2022/02/24 03:21:02;1160141.00;3.87;2018.32;92924.00;0.31;161.36;;;;;10.80;1.00;;;;;;2272315;61;1633;-87
2022/02/24 03:23:49;;;;;;;;;;;;;;;;;;;;;
2022/02/24 03:26:45;719174.00;2.40;1240.50;85481.00;0.28;148.50;;;;;11.20;1.00;;;;;;2272364;61;1113;-87
2022/02/24 03:29:24;750307.00;2.50;1294.59;0.00;0.00;0.62;;;;;11.10;1.00;;;;;;2272382;61;1528;-87
2022/02/24 03:32:06;552940.00;1.84;953.03;0.00;0.00;0.62;;;;;11.20;1.00;;;;;;2272339;61;1279;-87
2022/02/24 03:34:40;538699.00;1.80;928.48;0.00;0.00;0.62;;;;;11.50;1.00;;;;;;2272490;61;1013;-86
2022/02/24 03:37:30;;;;;;;;;;;;;;;;;;;;;
2022/02/24 03:40:04;454765.00;1.52;783.98;0.00;0.00;0.62;;;;;12.00;1.00;;;;;;2272366;61;995;-87
2022/02/24 03:42:41;583150.00;1.94;1005.13;23184.00;0.08;40.78;;;;;12.20;1.00;;;;;;2272399;61;1500;-88
2022/02/24 03:45:12;1374065.00;4.58;2408.31;109149.00;0.36;189.36;;;;;12.40;1.00;;;;;;2272457;61;1113;-87
2022/02/24 03:47:54;2180794.00;7.27;4002.40;291189.00;0.97;502.77;;;;;12.20;1.00;;;;;;2272256;61;1480;-87
2022/02/24 03:51:10;2259190.00;7.53;4170.82;248316.00;0.83;429.05;;;;;11.90;1.00;;;;;;2272155;61;1421;-87
2022/02/24 03:54:29;;;;;;;;;;;;;;;;;;;;;
2022/02/24 03:57:03;697560.00;2.33;1203.01;0.00;0.00;0.62;;;;;11.80;1.00;;;;;;2272322;61;1293;-88
2022/02/24 03:59:55;2630775.00;8.77;5010.20;238111.00;0.79;411.50;;;;;11.70;1.00;;;;;;2272224;61;1205;-87
2022/02/24 04:03:05;1943581.00;6.48;3509.11;192899.00;0.64;333.70;;;;;11.40;1.00;;;;;;2272378;61;1360;-87
2022/02/24 04:08:45;1837097.00;6.12;3295.02;181459.00;0.60;314.00;;;;;10.70;1.00;;;;;;2255495;61;1143;-87
2022/02/24 04:11:28;2227839.00;7.43;4103.13;305707.00;1.02;527.73;;;;;10.10;1.00;;;;;;2255789;61;1001;-88
2022/02/24 04:14:08;849952.00;2.83;1468.38;85432.00;0.28;148.42;;;;;10.00;1.00;;;;;;2255797;61;1347;-87
2022/02/24 04:22:31;482244.00;1.61;831.26;0.00;0.00;0.62;;;;;11.50;1.00;;;;;;2243834;62;1296;-87
2022/02/24 04:28:18;526727.00;1.76;907.85;0.00;0.00;0.62;;;;;11.90;1.00;;;;;;2243400;62;1066;-88
2022/02/24 04:36:47;632237.00;2.11;1089.92;0.00;0.00;0.62;;;;;12.10;1.00;;;;;;2242506;62;1026;-88
2022/02/24 04:43:00;821256.00;2.74;1418.22;93286.00;0.31;161.98;;;;;11.90;1.00;;;;;;2258081;61;1382;-87
2022/02/24 04:46:03;738540.00;2.46;1274.14;8273.00;0.03;14.96;;;;;11.40;1.00;;;;;;2259599;61;1087;-87
2022/02/24 04:49:11;1062856.00;3.54;1844.12;0.00;0.00;0.62;;;;;11.20;1.00;;;;;;2258773;61;1464;-86
2022/02/24 04:52:11;1515575.00;5.05;2672.46;31789.00;0.11;55.68;;;;;10.40;1.00;;;;;;2239332;62;1512;-88
2022/02/24 05:00:47;1657592.00;5.53;2943.32;174142.00;0.58;301.40;;;;;11.60;1.00;;;;;;2261337;61;1063;-87
2022/02/24 05:03:50;2348724.00;7.83;4366.69;222812.00;0.74;385.18;;;;;12.30;1.00;;;;;;2271967;61;1438;-88
2022/02/24 05:06:41;2071816.00;6.91;3772.84;229409.00;0.76;396.53;;;;;12.40;1.00;;;;;;2251662;61;1042;-87
2022/02/24 05:09:33;2380852.00;7.94;4437.92;239009.00;0.80;413.05;;;;;12.40;1.00;;;;;;2251478;61;1544;-87
2022/02/24 05:12:06;2290618.00;7.64;4239.14;120578.00;0.40;209.08;;;;;12.40;1.00;;;;;;2251594;61;1657;-88
2022/02/24 05:14:50;836068.00;2.79;1444.10;94333.00;0.31;163.79;;;;;12.50;1.00;;;;;;2251444;61;1185;-89
2022/02/24 05:17:29;621443.00;2.07;1071.26;102297.00;0.34;177.54;;;;;12.70;1.00;;;;;;2251641;61;1473;-87
2022/02/24 05:20:05;520756.00;1.74;897.57;16765.00;0.06;29.67;;;;;12.80;1.00;;;;;;2251575;61;1320;-87
2022/02/24 05:22:47;127034720.00;423.45;83059920.00;0.00;0.00;0.62;;;;;12.70;1.00;;;;;;2251654;61;1393;-87
2022/02/24 05:25:40;477677.00;1.59;823.40;0.00;0.00;0.62;;;;;12.10;1.00;;;;;;2251467;61;1567;-88
2022/02/24 05:28:26;808775.00;2.70;1396.43;8274.00;0.03;14.96;;;;;12.10;1.00;;;;;;2251460;61;1542;-87
2022/02/24 05:33:50;749261.00;2.50;1292.77;42541.00;0.14;74.28;;;;;12.40;1.00;;;;;;2251339;61;1534;-88
2022/02/24 05:36:25;1941490.00;6.47;3504.87;84632.00;0.28;147.04;;;;;12.00;1.00;;;;;;2251406;61;1088;-88
2022/02/24 05:41:49;1576235.00;5.25;2787.41;144617.00;0.48;250.53;;;;;11.90;1.00;;;;;;2270289;61;1375;-86
2022/02/24 05:44:22;1127040.00;3.76;1958.85;105939.00;0.35;183.82;;;;;11.90;1.00;;;;;;2272706;61;2226;-87
2022/02/24 05:47:16;534356.00;1.78;921.00;106604.00;0.36;184.97;;;;;12.00;1.00;;;;;;2272842;61;950;-88
2022/02/24 05:49:52;1301311.00;4.34;2274.50;119863.00;0.40;207.85;;;;;12.30;1.00;;;;;;2271554;61;1578;-88
2022/02/24 05:52:38;467300.00;1.56;805.54;88714.00;0.30;154.09;;;;;12.40;1.00;;;;;;2272731;61;1388;-88
2022/02/24 05:55:46;847484.00;2.82;1464.07;119241.00;0.40;206.77;;;;;12.50;1.00;;;;;;2272597;61;1586;-87
2022/02/24 05:58:44;590756.00;1.97;1018.26;86714.00;0.29;150.63;;;;;12.40;1.00;;;;;;2272677;61;2013;-87
2022/02/24 06:01:22;865059.00;2.88;1494.83;119737.00;0.40;207.63;;;;;12.20;1.00;;;;;;2272545;61;1238;-87
2022/02/24 06:04:13;566246.00;1.89;975.97;23469.00;0.08;41.28;;;;;11.80;1.00;;;;;;2272732;61;1448;-87
2022/02/24 13:44:44;510735.00;1.70;880.31;81151.00;0.27;141.03;;;;;15.90;1.00;;;;;;2416574;40;3305;31
2022/02/24 14:23:42;119620.00;0.40;207.43;0.00;0.00;0.62;;;;;15.80;1.00;;;;;;2232220;40;2719;-90
2022/02/24 14:26:31;487562.00;1.63;840.41;0.00;0.00;0.62;;;;;16.00;1.00;;;;;;2268667;61;1566;-89
2022/02/24 14:29:23;752920.00;2.51;1299.14;91533.00;0.31;158.95;;;;;16.10;1.00;;;;;;2268467;61;1540;-89
2022/02/24 14:32:05;317359.00;1.06;547.76;0.00;0.00;0.62;;;;;16.20;1.00;;;;;;2268369;61;2131;-88
2022/02/24 14:37:43;468584.00;1.56;807.75;0.00;0.00;0.62;;;;;15.60;1.00;;;;;;2264233;61;1477;-90
2022/02/24 14:40:28;476799.00;1.59;821.89;0.00;0.00;0.62;;;;;15.70;1.00;;;;;;2264399;61;2038;-91
2022/02/24 14:43:04;454654.00;1.52;783.79;0.00;0.00;0.62;;;;;15.50;1.00;;;;;;2264445;61;1269;-90
2022/02/24 14:45:45;559738.00;1.87;964.75;0.00;0.00;0.62;;;;;15.50;1.00;;;;;;2264471;61;1384;-91
2022/02/24 14:48:27;365103.00;1.22;629.82;0.00;0.00;0.62;;;;;15.50;1.00;;;;;;2264603;61;2070;-90
2022/02/24 14:51:10;662184.00;2.21;1141.72;76414.00;0.25;132.84;;;;;15.50;1.00;;;;;;2264442;61;1606;-92
2022/02/24 14:53:58;869727.00;2.90;1503.01;80041.00;0.27;139.11;;;;;15.70;1.00;;;;;;2264546;61;1466;-90
2022/02/24 14:59:03;1450208.00;4.83;2549.77;95173.00;0.32;165.24;;;;;15.20;1.00;;;;;;2270360;61;1927;-88
2022/02/24 15:01:38;976035.00;3.25;1690.07;127576.00;0.43;221.15;;;;;15.40;1.00;;;;;;2268463;61;924;-89
2022/02/24 15:04:09;920225.00;3.07;1591.67;137645.00;0.46;238.51;;;;;15.50;1.00;;;;;;2272423;61;1436;-89
2022/02/24 15:06:44;535735.00;1.79;923.37;94051.00;0.31;163.30;;;;;15.70;1.00;;;;;;2272428;61;1546;-91
2022/02/24 15:09:15;696052.00;2.32;1200.39;168525.00;0.56;291.73;;;;;15.70;1.00;;;;;;2272387;61;1550;-90
2022/02/24 15:17:03;318737.00;1.06;550.13;17829.00;0.06;31.51;;;;;15.30;1.00;;;;;;808971;59;1815;-89
2022/02/24 15:19:47;287348.00;0.96;496.17;0.00;0.00;0.62;;;;;15.20;1.00;;;;;;2271174;61;1986;-89
2022/02/24 15:22:43;535917.00;1.79;923.69;0.00;0.00;0.62;;;;;15.40;1.00;;;;;;2273088;61;1260;-90
2022/02/24 15:38:51;1844904.00;6.15;3310.57;214421.00;0.71;370.74;;;;;14.80;1.00;;;;;;2267254;61;1078;-90
2022/02/24 15:49:34;1069071.00;3.56;1855.20;115989.00;0.39;201.16;;;;;14.50;1.00;;;;;;2266931;61;1183;-90
2022/02/24 16:00:28;1826134.00;6.09;3273.22;68870.00;0.23;119.81;;;;;14.50;1.00;;;;;;2273653;61;1952;-92
2022/02/24 16:03:15;550214.00;1.83;948.33;34066.00;0.11;59.62;;;;;14.70;1.00;;;;;;2270098;61;1509;-92
2022/02/24 16:06:04;468857.00;1.56;808.22;3235.00;0.01;6.23;;;;;14.80;1.00;;;;;;2346538;55;3878;-90
2022/02/24 16:09:02;419156.00;1.40;722.74;0.00;0.00;0.62;;;;;14.90;1.00;;;;;;2272278;61;1652;-90
2022/02/24 16:17:25;266048.00;0.89;459.55;0.00;0.00;0.62;;;;;14.50;1.00;;;;;;2267695;61;982;-91
2022/02/24 16:35:46;437571.00;1.46;754.41;6564.00;0.02;12.00;;;;;14.30;1.00;;;;;;2275975;61;1127;-92
2022/02/24 16:38:18;613108.00;2.04;1056.86;0.00;0.00;0.62;;;;;14.30;1.00;;;;;;2275984;61;1621;-90
2022/02/24 16:43:36;1647907.00;5.49;2924.65;0.00;0.00;0.62;;;;;14.20;1.00;;;;;;2264455;61;1412;-90
2022/02/24 16:48:53;439658.00;1.47;757.99;0.00;0.00;0.62;;;;;14.10;1.00;;;;;;2259964;61;1412;-90
2022/02/24 16:51:21;844254.00;2.81;1458.41;35907.00;0.12;62.81;;;;;14.40;1.00;;;;;;2263980;61;1726;-90
2022/02/24 16:54:06;476785.00;1.59;821.86;30994.00;0.10;54.30;;;;;14.40;1.00;;;;;;2264026;61;1333;-90
2022/02/24 16:56:49;515378.00;1.72;888.30;0.00;0.00;0.62;;;;;14.30;1.00;;;;;;2262865;61;1483;-91
2022/02/24 16:59:22;389570.00;1.30;671.88;50600.00;0.17;88.22;;;;;14.40;1.00;;;;;;2264040;61;2000;-90
2022/02/24 17:01:53;240769.00;0.80;416.07;0.00;0.00;0.62;;;;;13.90;1.00;;;;;;2263894;61;1590;-90
2022/02/24 17:07:00;801433.00;2.67;1383.62;50025.00;0.17;87.23;;;;;14.00;1.00;;;;;;2279819;56;1800;-90
2022/02/24 17:12:13;923028.00;3.08;1596.60;70287.00;0.23;122.26;;;;;13.90;1.00;;;;;;2345805;41;4017;-89
2022/02/24 17:14:43;1940341.00;6.47;3502.54;163758.00;0.55;283.51;;;;;13.80;1.00;;;;;;2272040;61;1479;-88
2022/02/24 17:17:14;1537738.00;5.13;2714.33;67402.00;0.22;117.27;;;;;13.50;1.00;;;;;;2272098;61;924;-89
2022/02/24 17:19:44;949890.00;3.17;1643.92;124956.00;0.42;216.63;;;;;13.40;1.00;;;;;;2281993;55;3856;-88
2022/02/24 17:22:26;1353420.00;4.51;2370.21;93812.00;0.31;162.89;;;;;13.10;1.00;;;;;;2264646;61;1715;-89
2022/02/24 17:24:56;1695896.00;5.65;3017.45;88459.00;0.29;153.65;;;;;13.20;1.00;;;;;;2268013;61;1621;-90
2022/02/24 17:27:24;1919004.00;6.40;3459.32;132757.00;0.44;230.08;;;;;13.00;1.00;;;;;;2268056;61;1061;-90
2022/02/24 17:29:54;1022413.00;3.41;1772.21;99652.00;0.33;172.97;;;;;13.10;1.00;;;;;;2267965;61;1003;-91
2022/02/24 17:32:23;427933.00;1.43;737.83;0.00;0.00;0.62;;;;;13.10;1.00;;;;;;2267843;61;1353;-89
2022/02/24 17:34:53;530497.00;1.77;914.35;18205.00;0.06;32.16;;;;;13.10;1.00;;;;;;2289632;55;3882;-90
2022/02/24 17:37:25;757110.00;2.52;1306.42;0.00;0.00;0.62;;;;;13.10;1.00;;;;;;2259985;61;1501;-90
2022/02/24 17:39:55;597260.00;1.99;1029.49;80028.00;0.27;139.09;;;;;13.00;1.00;;;;;;2259985;61;2324;-89
2022/02/24 17:42:23;606180.00;2.02;1044.89;0.00;0.00;0.62;;;;;13.10;1.00;;;;;;2259905;61;1290;-90
2022/02/24 17:44:50;310960.00;1.04;536.76;0.00;0.00;0.62;;;;;13.00;1.00;;;;;;2260045;61;1768;-90
2022/02/24 17:47:21;712615.00;2.38;1229.12;0.00;0.00;0.62;;;;;13.20;1.00;;;;;;2259930;61;1375;-89
2022/02/24 17:50:08;560012.00;1.87;965.22;0.00;0.00;0.62;;;;;13.50;1.00;;;;;;2260106;61;1605;-90
2022/02/24 17:52:46;695308.00;2.32;1199.10;59810.00;0.20;104.15;;;;;13.40;1.00;;;;;;2257866;61;1529;-90
2022/02/24 17:55:21;270052.00;0.90;466.43;0.00;0.00;0.62;;;;;13.00;1.00;;;;;;2263480;40;3773;-90
2022/02/24 17:57:55;124743368.00;415.81;78641872.00;149.00;0.00;0.88;;;;;13.00;1.00;;;;;;2264061;61;2422;-90
2022/02/24 18:00:44;586182.00;1.95;1010.37;5632.00;0.02;10.38;;;;;13.20;1.00;;;;;;2263890;61;2006;-91
2022/02/24 18:05:48;1490959.00;4.97;2626.12;215813.00;0.72;373.14;;;;;12.90;1.00;;;;;;1435700;41;3416;-91
2022/02/24 18:08:21;2077761.00;6.93;3785.24;222242.00;0.74;384.20;;;;;12.70;1.00;;;;;;2285224;41;3948;-89
2022/02/24 18:10:58;1852538.00;6.18;3325.80;129992.00;0.43;225.32;;;;;12.50;1.00;;;;;;2297222;55;3932;-90
2022/02/24 18:13:36;1554432.00;5.18;2745.97;143316.00;0.48;248.29;;;;;12.50;1.00;;;;;;2281261;41;3817;-91
2022/02/24 18:16:08;1855705.00;6.19;3332.13;203674.00;0.68;352.25;;;;;12.70;1.00;;;;;;2267767;61;1075;-90
2022/02/24 18:18:38;1622028.00;5.41;2874.91;158770.00;0.53;274.92;;;;;12.60;1.00;;;;;;2267995;61;1437;-91
2022/02/24 18:21:18;559913.00;1.87;965.05;81677.00;0.27;141.93;;;;;12.50;1.00;;;;;;2267784;61;2001;-91
2022/02/24 18:23:52;713738.00;2.38;1231.07;0.00;0.00;0.62;;;;;12.50;1.00;;;;;;2267985;61;1431;-90
2022/02/24 18:26:20;939290.00;3.13;1625.23;7032.00;0.02;12.81;;;;;12.70;1.00;;;;;;2288456;56;3893;-90
2022/02/24 18:28:47;444942.00;1.48;767.08;0.00;0.00;0.62;;;;;12.70;1.00;;;;;;2264436;61;953;-91
2022/02/24 18:31:24;498397.00;1.66;859.06;0.00;0.00;0.62;;;;;12.50;1.00;;;;;;2263837;61;2222;-89
2022/02/24 18:34:02;790969.00;2.64;1365.38;57854.00;0.19;100.77;;;;;12.50;1.00;;;;;;2263632;61;1530;-89
2022/02/24 18:36:33;423439.00;1.41;730.10;35839.00;0.12;62.69;;;;;12.70;1.00;;;;;;2262784;61;1036;-88
2022/02/24 18:39:24;519772.00;1.73;895.87;0.00;0.00;0.62;;;;;12.90;1.00;;;;;;2263720;61;1499;-88
2022/02/24 18:41:53;602927.00;2.01;1039.27;0.00;0.00;0.62;;;;;12.90;1.00;;;;;;2263855;61;1736;-88
2022/02/24 18:44:28;547031.00;1.82;942.84;0.00;0.00;0.62;;;;;12.80;1.00;;;;;;2263829;61;1471;-89
2022/02/24 18:46:58;781244.00;2.60;1348.43;24835.00;0.08;43.64;;;;;12.60;1.00;;;;;;2263775;61;1524;-89
2022/02/24 18:49:36;750064.00;2.50;1294.17;8983.00;0.03;16.19;;;;;12.60;1.00;;;;;;2263935;61;1512;-89
2022/02/24 18:52:18;523761.00;1.75;902.74;0.00;0.00;0.62;;;;;12.60;1.00;;;;;;2264609;61;1372;-88
2022/02/24 18:54:58;758225.00;2.53;1308.36;0.00;0.00;0.62;;;;;12.70;1.00;;;;;;2264485;61;1340;-89
2022/02/24 19:00:34;401444.00;1.34;692.29;0.00;0.00;0.62;;;;;12.40;1.00;;;;;;2263924;61;1985;-88
2022/02/24 19:03:07;311205.00;1.04;537.18;0.00;0.00;0.62;;;;;12.40;1.00;;;;;;2264543;61;1414;-90
2022/02/24 19:06:01;724748.00;2.42;1250.18;61560.00;0.21;107.17;;;;;12.50;1.00;;;;;;2264543;61;1488;-87
2022/02/24 19:09:01;332871.00;1.11;574.42;0.00;0.00;0.62;;;;;12.60;1.00;;;;;;2264434;61;994;-89
2022/02/24 19:14:24;601506.00;2.01;1036.82;0.00;0.00;0.62;;;;;12.70;1.00;;;;;;2264005;61;1018;-89
2022/02/24 19:16:59;269984.00;0.90;466.32;0.00;0.00;0.62;;;;;12.60;1.00;;;;;;2264543;61;988;-89
2022/02/24 19:19:44;858822.00;2.86;1483.91;5854.00;0.02;10.77;;;;;12.40;1.00;;;;;;2264362;61;1981;-89
2022/02/24 19:22:35;1079867.00;3.60;1874.46;0.00;0.00;0.62;;;;;12.50;1.00;;;;;;2264298;61;1775;-89
2022/02/24 19:25:20;1221666.00;4.07;2129.44;107882.00;0.36;187.18;;;;;12.50;1.00;;;;;;2264198;61;993;-88
2022/02/24 19:28:00;840976.00;2.80;1452.68;0.00;0.00;0.62;;;;;12.70;1.00;;;;;;2264425;61;938;-88
2022/02/24 19:54:00;528008.00;1.76;910.06;44361.00;0.15;77.43;;;;;12.50;1.00;;;;;;1561156;55;2710;-90
2022/02/24 19:56:50;591882.00;1.97;1020.20;42998.00;0.14;75.08;;;;;12.80;1.00;;;;;;2264121;61;1585;-90
2022/02/24 19:59:31;682440.00;2.27;1176.80;87777.00;0.29;152.47;;;;;13.10;1.00;;;;;;2264250;61;1451;-91
2022/02/24 20:02:13;1610055.00;5.37;2851.97;115367.00;0.38;200.09;;;;;13.20;1.00;;;;;;2263587;61;1484;-91
2022/02/24 20:12:59;618526.00;2.06;1066.22;0.00;0.00;0.62;;;;;13.00;1.00;;;;;;2262726;61;1262;-90
2022/02/24 20:15:46;;;;;;;;;;;;;;;;;;;;;
2022/02/24 20:18:28;321652.00;1.07;555.14;0.00;0.00;0.62;;;;;13.60;1.00;;;;;;2264243;61;827;-90
2022/02/24 20:21:05;767484.00;2.56;1324.47;0.00;0.00;0.62;;;;;13.10;1.00;;;;;;2264087;61;1998;-91
2022/02/24 20:24:21;557923.00;1.86;961.62;0.00;0.00;0.62;;;;;12.90;1.00;;;;;;2264109;61;1637;-89
2022/02/24 20:27:18;535676.00;1.79;923.27;48403.00;0.16;84.42;;;;;13.00;1.00;;;;;;2264152;61;1502;-89
2022/02/24 20:36:05;304725.00;1.02;526.04;0.00;0.00;0.62;;;;;12.30;1.00;;;;;;2263571;61;1744;-88
2022/02/24 20:38:43;671495.00;2.24;1157.84;0.00;0.00;0.62;;;;;11.40;1.00;;;;;;2264168;61;1583;-89
2022/02/24 20:44:12;369376.00;1.23;637.16;0.00;0.00;0.62;;;;;10.70;1.00;;;;;;2263737;61;1428;-90
2022/02/24 20:46:46;752560.00;2.51;1298.51;0.00;0.00;0.62;;;;;10.50;1.00;;;;;;2264087;61;1493;-89
2022/02/24 20:49:22;647430.00;2.16;1116.19;85196.00;0.28;148.01;;;;;9.10;1.00;;;;;;2264250;61;1057;-89
2022/02/24 20:51:59;1004058.00;3.35;1739.66;160205.00;0.53;277.39;;;;;8.50;1.00;;;;;;2264022;61;1506;-89
2022/02/24 20:54:36;1285129.00;4.28;2244.92;170582.00;0.57;295.27;;;;;7.90;1.00;;;;;;2262936;61;941;-90
2022/02/24 20:57:17;1274411.00;4.25;2225.35;98277.00;0.33;170.60;;;;;7.90;1.00;;;;;;2264078;61;1556;-89
2022/02/24 21:00:07;1614976.00;5.38;2861.39;138159.00;0.46;239.40;;;;;7.40;1.00;;;;;;2264113;61;1515;-89
2022/02/24 21:03:05;1746794.00;5.82;3116.71;25765.00;0.09;45.25;;;;;7.70;1.00;;;;;;2251386;61;1547;-88
2022/02/24 21:05:54;640759.00;2.14;1104.65;0.00;0.00;0.62;;;;;8.40;1.00;;;;;;2251524;61;1420;-88
2022/02/24 21:08:37;588277.00;1.96;1013.98;0.00;0.00;0.62;;;;;8.90;1.00;;;;;;2251502;61;1554;-88
2022/02/24 21:11:19;621500.00;2.07;1071.36;0.00;0.00;0.62;;;;;9.00;1.00;;;;;;2251400;61;1559;-89
2022/02/24 21:14:03;738215.00;2.46;1273.57;0.00;0.00;0.62;;;;;8.90;1.00;;;;;;2251390;61;1558;-88
2022/02/24 21:16:47;673792.00;2.25;1161.82;0.00;0.00;0.62;;;;;8.90;1.00;;;;;;2251250;61;1615;-89
2022/02/24 21:19:37;765602.00;2.55;1321.20;0.00;0.00;0.62;;;;;9.40;1.00;;;;;;2251539;61;1484;-89
2022/02/24 21:22:09;917888.00;3.06;1587.56;87016.00;0.29;151.15;;;;;9.70;1.00;;;;;;2251375;61;1944;-90
2022/02/24 21:25:11;1316883.00;4.39;2303.04;90753.00;0.30;157.61;;;;;9.20;1.00;;;;;;2251612;61;1598;-90
2022/02/24 21:28:00;722630.00;2.41;1246.50;1688.00;0.01;3.55;;;;;9.20;1.00;;;;;;2251369;61;1611;-88
2022/02/24 21:30:44;841863.00;2.81;1454.23;0.00;0.00;0.62;;;;;9.50;1.00;;;;;;2251496;61;1491;-90
2022/02/24 21:36:43;505351.00;1.68;871.04;0.00;0.00;0.62;;;;;10.60;1.00;;;;;;2251512;61;1415;-88
2022/02/24 21:39:28;603216.00;2.01;1039.77;0.00;0.00;0.62;;;;;10.40;1.00;;;;;;2255640;61;1566;-89
2022/02/24 21:45:05;1328290.00;4.43;2323.97;0.00;0.00;0.62;;;;;10.70;1.00;;;;;;2184252;60;1789;-89
2022/02/24 21:47:48;613868.00;2.05;1058.17;0.00;0.00;0.62;;;;;11.00;1.00;;;;;;2263882;61;1487;-89
2022/02/24 21:50:47;483181.00;1.61;832.87;0.00;0.00;0.62;;;;;10.90;1.00;;;;;;2264076;61;976;-89
2022/02/24 21:53:36;716731.00;2.39;1236.26;107788.00;0.36;187.01;;;;;10.90;1.00;;;;;;2261144;61;1510;-89
2022/02/24 21:56:34;1575114.00;5.25;2785.27;115979.00;0.39;201.15;;;;;10.90;1.00;;;;;;2259865;61;1468;-89
2022/02/24 21:59:18;649572.00;2.17;1119.90;4166.00;0.01;7.84;;;;;10.60;1.00;;;;;;2259927;61;2138;-89
2022/02/24 22:05:02;537094.00;1.79;925.72;0.00;0.00;0.62;;;;;10.60;1.00;;;;;;2259569;61;1105;-89
2022/02/24 22:08:17;;;;;;;;;;;;;;;;;;;;;
2022/02/24 22:11:25;628719.00;2.10;1083.83;0.00;0.00;0.62;;;;;10.40;1.00;;;;;;2259824;61;1267;-88
2022/02/24 22:14:11;833684.00;2.78;1439.93;80880.00;0.27;140.56;;;;;10.40;1.00;;;;;;2259928;61;1333;-88